createdAt,value
2022-09-04T00:00:07.854Z,20.10
2022-09-04T00:02:55.404Z,20.10
2022-09-04T00:05:28.530Z,20.20
2022-09-04T00:08:06.046Z,20.20
2022-09-04T00:10:42.097Z,20.10
2022-09-04T00:13:17.511Z,20.10
2022-09-04T00:15:51.806Z,20.00
2022-09-04T00:18:27.497Z,20.00
2022-09-04T00:21:01.629Z,20.10
2022-09-04T00:23:38.415Z,20.00
2022-09-04T00:26:15.703Z,19.90
2022-09-04T00:28:54.488Z,19.90
2022-09-04T00:31:37.774Z,19.80
2022-09-04T00:34:15.567Z,19.80
2022-09-04T00:36:50.239Z,19.90
2022-09-04T00:39:23.868Z,20.00
2022-09-04T00:42:02.304Z,20.00
2022-09-04T00:44:48.398Z,20.00
2022-09-04T00:47:51.465Z,20.00
2022-09-04T00:50:34.002Z,19.80
2022-09-04T00:53:28.761Z,19.80
2022-09-04T00:56:27.034Z,19.80
2022-09-04T00:59:10.464Z,19.90
2022-09-04T01:01:40.092Z,20.00
2022-09-04T01:04:36.238Z,20.00
2022-09-04T01:07:32.009Z,20.00
2022-09-04T01:10:19.058Z,19.90
2022-09-04T01:12:55.847Z,19.90
2022-09-04T01:15:30.933Z,19.90
2022-09-04T01:18:10.244Z,19.90
2022-09-04T01:20:54.052Z,19.90
2022-09-04T01:23:45.310Z,19.80
2022-09-04T01:26:23.826Z,19.70
2022-09-04T01:29:22.604Z,19.60
2022-09-04T01:31:56.842Z,19.70
2022-09-04T01:34:39.308Z,19.70
2022-09-04T01:37:21.197Z,19.60
2022-09-04T01:40:13.416Z,19.80
2022-09-04T01:42:50.664Z,19.70
2022-09-04T01:45:30.200Z,19.70
2022-09-04T01:48:03.033Z,19.70
2022-09-04T01:50:33.486Z,19.70
2022-09-04T01:53:10.164Z,19.60
2022-09-04T01:55:45.789Z,19.60
2022-09-04T01:58:23.909Z,19.50
2022-09-04T02:01:01.405Z,19.50
2022-09-04T02:03:40.400Z,19.60
2022-09-04T02:06:17.616Z,19.60
2022-09-04T02:09:01.486Z,19.50
2022-09-04T02:11:32.112Z,19.60
2022-09-04T02:14:17.822Z,19.70
2022-09-04T02:16:56.351Z,19.70
2022-09-04T02:19:37.474Z,19.70
2022-09-04T02:22:14.687Z,19.60
2022-09-04T02:24:49.875Z,19.60
2022-09-04T02:27:26.481Z,19.60
2022-09-04T02:30:02.715Z,19.70
2022-09-04T02:32:37.888Z,19.60
2022-09-04T02:35:14.509Z,19.60
2022-09-04T02:37:52.078Z,19.70
2022-09-04T02:40:27.762Z,19.80
2022-09-04T02:43:07.194Z,19.80
2022-09-04T02:45:43.267Z,19.80
2022-09-04T02:48:16.819Z,19.80
2022-09-04T02:51:07.127Z,19.70
2022-09-04T02:53:43.377Z,19.70
2022-09-04T02:56:25.219Z,19.80
2022-09-04T02:59:11.568Z,19.70
2022-09-04T03:01:51.205Z,19.80
2022-09-04T03:04:25.480Z,19.80
2022-09-04T03:06:58.832Z,19.80
2022-09-04T03:09:32.945Z,19.80
2022-09-04T03:12:05.755Z,19.90
2022-09-04T03:14:39.928Z,20.00
2022-09-04T03:17:18.085Z,19.90
2022-09-04T03:19:52.477Z,19.90
2022-09-04T03:22:27.431Z,19.90
2022-09-04T03:25:10.651Z,19.90
2022-09-04T03:27:39.309Z,19.80
2022-09-04T03:30:09.488Z,19.80
2022-09-04T03:32:48.349Z,19.80
2022-09-04T03:35:23.584Z,19.80
2022-09-04T03:38:07.117Z,19.70
2022-09-04T03:40:39.251Z,19.70
2022-09-04T03:43:40.656Z,19.80
2022-09-04T03:46:21.290Z,19.90
2022-09-04T03:49:05.591Z,19.90
2022-09-04T03:51:44.394Z,19.80
2022-09-04T03:54:25.977Z,19.80
2022-09-04T03:57:28.921Z,19.70
2022-09-04T04:00:07.079Z,19.80
2022-09-04T04:03:00.831Z,19.70
2022-09-04T04:05:41.978Z,19.70
2022-09-04T04:08:28.423Z,19.80
2022-09-04T04:11:03.221Z,19.80
2022-09-04T04:13:48.274Z,19.80
2022-09-04T04:16:43.043Z,19.80
2022-09-04T04:19:30.940Z,19.80
2022-09-04T04:22:20.751Z,19.80
2022-09-04T04:25:02.195Z,19.80
2022-09-04T04:27:44.321Z,19.90
2022-09-04T04:30:15.551Z,19.80
2022-09-04T04:33:01.202Z,19.80
2022-09-04T04:35:36.384Z,19.80
2022-09-04T04:38:19.337Z,19.90
2022-09-04T04:41:16.401Z,19.90
2022-09-04T04:43:57.595Z,19.90
2022-09-04T04:46:36.875Z,19.90
2022-09-04T04:49:23.744Z,19.90
2022-09-04T04:52:03.994Z,19.90
2022-09-04T04:54:47.214Z,19.90
2022-09-04T04:57:28.260Z,19.90
2022-09-04T05:00:07.753Z,19.90
2022-09-04T05:02:43.285Z,20.00
2022-09-04T05:05:18.414Z,20.00
2022-09-04T05:07:54.315Z,20.00
2022-09-04T05:10:31.690Z,20.00
2022-09-04T05:13:11.197Z,20.00
2022-09-04T05:16:07.548Z,20.00
2022-09-04T05:18:36.445Z,20.00
2022-09-04T05:21:11.599Z,20.00
2022-09-04T05:23:47.688Z,20.00
2022-09-04T05:26:28.138Z,20.00
2022-09-04T05:29:02.341Z,20.10
2022-09-04T05:31:38.792Z,20.10
2022-09-04T05:34:17.607Z,20.10
2022-09-04T05:36:58.884Z,20.20
2022-09-04T05:39:31.787Z,20.20
2022-09-04T05:42:19.653Z,20.10
2022-09-04T05:44:59.712Z,20.10
2022-09-04T05:47:43.139Z,20.10
2022-09-04T05:50:37.978Z,20.10
2022-09-04T05:53:40.912Z,20.10
2022-09-04T05:56:36.322Z,20.10
2022-09-04T05:59:27.723Z,20.00
2022-09-04T06:02:13.866Z,20.10
2022-09-04T06:05:21.155Z,20.10
2022-09-04T06:08:01.372Z,20.10
2022-09-04T06:10:42.111Z,20.10
2022-09-04T06:13:53.157Z,20.10
2022-09-04T06:16:47.343Z,20.10
2022-09-04T06:19:38.543Z,20.10
2022-09-04T06:22:37.058Z,20.20
2022-09-04T06:25:32.477Z,20.10
2022-09-04T06:28:38.069Z,20.10
2022-09-04T06:31:28.875Z,20.10
2022-09-04T06:34:07.360Z,20.10
2022-09-04T06:36:56.549Z,20.20
2022-09-04T06:39:41.413Z,20.20
2022-09-04T06:42:22.940Z,20.20
2022-09-04T06:45:19.267Z,20.30
2022-09-04T06:48:01.600Z,20.20
2022-09-04T06:50:41.374Z,20.30
2022-09-04T06:53:19.203Z,20.40
2022-09-04T06:55:58.222Z,20.30
2022-09-04T06:58:48.982Z,20.30
2022-09-04T07:01:26.225Z,20.30
2022-09-04T07:04:12.531Z,20.30
2022-09-04T07:06:57.706Z,20.30
2022-09-04T07:09:30.243Z,20.40
2022-09-04T07:12:33.514Z,20.40
2022-09-04T07:15:28.560Z,20.40
2022-09-04T07:18:07.214Z,20.40
2022-09-04T07:20:40.414Z,20.40
2022-09-04T07:23:27.590Z,20.40
2022-09-04T07:26:07.389Z,20.50
2022-09-04T07:29:16.732Z,20.50
2022-09-04T07:31:53.586Z,20.40
2022-09-04T07:34:26.891Z,20.50
2022-09-04T07:37:01.432Z,20.50
2022-09-04T07:39:37.089Z,20.50
2022-09-04T07:42:12.499Z,20.50
2022-09-04T07:44:48.910Z,20.40
2022-09-04T07:47:22.864Z,20.50
2022-09-04T07:49:59.011Z,20.50
2022-09-04T07:52:42.898Z,20.50
2022-09-04T07:55:24.215Z,20.50
2022-09-04T07:58:28.856Z,20.60
2022-09-04T08:01:10.144Z,20.50
2022-09-04T08:04:04.830Z,20.50
2022-09-04T08:06:44.725Z,20.50
2022-09-04T08:09:33.540Z,20.50
2022-09-04T08:12:48.783Z,20.50
2022-09-04T08:15:21.962Z,20.50
2022-09-04T08:18:16.438Z,20.50
2022-09-04T08:20:49.548Z,20.50
2022-09-04T08:23:36.859Z,20.50
2022-09-04T08:26:14.506Z,20.60
2022-09-04T08:28:58.566Z,20.70
2022-09-04T08:31:32.004Z,20.60
2022-09-04T08:34:30.643Z,20.70
2022-09-04T08:37:08.427Z,20.70
2022-09-04T08:39:46.983Z,20.80
2022-09-04T08:42:45.583Z,20.80
2022-09-04T08:45:42.452Z,20.80
2022-09-04T08:49:00.090Z,20.80
2022-09-04T08:52:08.834Z,20.80
2022-09-04T08:55:07.964Z,20.90
2022-09-04T08:58:02.701Z,20.90
2022-09-04T09:00:45.269Z,20.90
2022-09-04T09:03:55.267Z,20.90
2022-09-04T09:07:02.107Z,21.00
2022-09-04T09:10:09.414Z,21.00
2022-09-04T09:13:16.437Z,21.00
2022-09-04T09:16:12.319Z,21.00
2022-09-04T09:19:09.385Z,21.10
2022-09-04T09:21:44.816Z,21.20
2022-09-04T09:24:38.681Z,21.20
2022-09-04T09:27:30.558Z,21.30
2022-09-04T09:30:09.954Z,21.40
2022-09-04T09:33:14.904Z,21.40
2022-09-04T09:36:04.750Z,21.40
2022-09-04T09:38:49.650Z,21.50
2022-09-04T09:41:46.434Z,21.50
2022-09-04T09:44:42.789Z,21.50
2022-09-04T09:48:02.925Z,21.50
2022-09-04T09:51:00.211Z,21.60
2022-09-04T09:54:00.812Z,21.60
2022-09-04T09:57:13.629Z,21.60
2022-09-04T10:00:07.737Z,21.70
2022-09-04T10:03:15.912Z,21.70
2022-09-04T10:06:32.353Z,21.70
2022-09-04T10:09:45.228Z,21.80
2022-09-04T10:13:04.614Z,21.80
2022-09-04T10:16:01.579Z,21.80
2022-09-04T10:19:12.443Z,21.90
2022-09-04T10:22:21.721Z,21.90
2022-09-04T10:25:31.080Z,21.90
2022-09-04T10:28:29.110Z,22.00
2022-09-04T10:31:32.696Z,22.00
2022-09-04T10:34:13.116Z,22.00
2022-09-04T10:36:52.557Z,22.00
2022-09-04T10:39:48.063Z,22.10
2022-09-04T10:42:31.738Z,22.10
2022-09-04T10:45:17.227Z,22.10
2022-09-04T10:48:09.643Z,22.20
2022-09-04T10:51:01.872Z,22.20
2022-09-04T10:53:51.232Z,22.20
2022-09-04T10:56:26.682Z,22.30
2022-09-04T10:59:32.084Z,22.30
2022-09-04T11:02:41.016Z,22.40
2022-09-04T11:05:29.320Z,22.40
2022-09-04T11:08:21.229Z,22.40
2022-09-04T11:11:23.047Z,22.40
2022-09-04T11:14:18.659Z,22.50
2022-09-04T11:17:15.411Z,22.50
2022-09-04T11:20:20.954Z,22.50
2022-09-04T11:23:33.443Z,22.50
2022-09-04T11:26:36.288Z,22.60
2022-09-04T11:29:17.377Z,22.50
2022-09-04T11:32:03.856Z,22.60
2022-09-04T11:35:09.826Z,22.60
2022-09-04T11:38:14.951Z,22.60
2022-09-04T11:41:11.172Z,22.60
2022-09-04T11:44:11.235Z,22.60
2022-09-04T11:47:19.365Z,22.60
2022-09-04T11:50:16.445Z,22.60
2022-09-04T11:53:10.191Z,22.60
2022-09-04T11:55:55.645Z,22.60
2022-09-04T11:58:49.429Z,22.70
2022-09-04T12:01:34.440Z,22.70
2022-09-04T12:04:35.756Z,22.70
2022-09-04T12:07:26.492Z,22.70
2022-09-04T12:10:29.760Z,22.60
2022-09-04T12:13:31.265Z,22.60
2022-09-04T12:16:18.161Z,22.70
2022-09-04T12:19:16.102Z,22.70
2022-09-04T12:22:26.082Z,22.70
2022-09-04T12:25:23.610Z,22.70
2022-09-04T12:28:15.862Z,22.70
2022-09-04T12:31:00.248Z,22.80
2022-09-04T12:33:52.934Z,22.80
2022-09-04T12:36:53.229Z,22.80
2022-09-04T12:39:59.587Z,22.80
2022-09-04T12:42:33.251Z,22.70
2022-09-04T12:45:10.879Z,22.60
2022-09-04T12:47:55.505Z,22.60
2022-09-04T12:50:35.420Z,22.70
2022-09-04T12:53:26.123Z,22.60
2022-09-04T12:56:05.710Z,22.60
2022-09-04T12:58:52.289Z,22.50
2022-09-04T13:01:32.233Z,22.70
2022-09-04T13:04:11.494Z,22.70
2022-09-04T13:06:53.488Z,22.70
2022-09-04T13:09:33.493Z,22.70
2022-09-04T13:12:15.644Z,22.70
2022-09-04T13:15:03.271Z,22.70
2022-09-04T13:17:43.405Z,22.70
2022-09-04T13:20:22.666Z,22.70
2022-09-04T13:23:04.381Z,22.60
2022-09-04T13:25:48.451Z,22.60
2022-09-04T13:28:25.182Z,22.60
2022-09-04T13:31:00.037Z,22.60
2022-09-04T13:33:41.787Z,22.60
2022-09-04T13:36:32.180Z,22.60
2022-09-04T13:39:22.819Z,22.60
2022-09-04T13:42:16.171Z,22.60
2022-09-04T13:45:05.670Z,22.60
2022-09-04T13:47:42.565Z,22.60
2022-09-04T13:50:20.721Z,22.70
2022-09-04T13:52:57.971Z,22.60
2022-09-04T13:55:30.526Z,22.70
2022-09-04T13:58:05.757Z,22.70
2022-09-04T14:00:37.700Z,22.60
2022-09-04T14:03:11.741Z,22.60
2022-09-04T14:05:40.461Z,22.70
2022-09-04T14:08:16.073Z,22.70
2022-09-04T14:11:14.295Z,22.60
2022-09-04T14:14:01.994Z,22.70
2022-09-04T14:16:33.876Z,22.60
2022-09-04T14:19:21.105Z,22.60
2022-09-04T14:22:18.604Z,22.60
2022-09-04T14:24:56.228Z,22.60
2022-09-04T14:27:32.850Z,22.70
2022-09-04T14:30:07.094Z,22.60
2022-09-04T14:33:19.395Z,22.70
2022-09-04T14:36:02.762Z,22.70
2022-09-04T14:38:56.929Z,22.70
2022-09-04T14:41:37.063Z,22.70
2022-09-04T14:44:21.761Z,22.70
2022-09-04T14:46:59.251Z,22.70
2022-09-04T14:49:31.642Z,22.70
2022-09-04T14:52:03.526Z,22.70
2022-09-04T14:54:35.960Z,22.70
2022-09-04T14:57:17.683Z,22.70
2022-09-04T14:59:51.888Z,22.70
2022-09-04T15:02:29.183Z,22.70
2022-09-04T15:05:04.375Z,22.70
2022-09-04T15:08:03.582Z,22.70
2022-09-04T15:10:37.096Z,22.70
2022-09-04T15:13:33.561Z,22.80
2022-09-04T15:16:15.848Z,22.70
2022-09-04T15:18:53.488Z,22.70
2022-09-04T15:21:33.969Z,22.80
2022-09-04T15:24:14.894Z,22.80
2022-09-04T15:26:47.002Z,22.70
2022-09-04T15:29:19.671Z,22.70
2022-09-04T15:31:48.390Z,22.80
2022-09-04T15:34:22.748Z,22.70
2022-09-04T15:36:52.482Z,22.80
2022-09-04T15:39:37.476Z,22.80
2022-09-04T15:42:12.299Z,22.80
2022-09-04T15:44:44.238Z,22.70
2022-09-04T15:47:19.120Z,22.80
2022-09-04T15:49:51.952Z,22.70
2022-09-04T15:52:30.514Z,22.70
2022-09-04T15:55:06.201Z,22.70
2022-09-04T15:57:49.648Z,22.70
2022-09-04T16:00:23.329Z,22.70
2022-09-04T16:02:59.345Z,22.70
2022-09-04T16:05:35.113Z,22.80
2022-09-04T16:08:20.459Z,22.80
2022-09-04T16:10:57.429Z,22.70
2022-09-04T16:13:46.731Z,22.80
2022-09-04T16:16:22.051Z,22.70
2022-09-04T16:19:09.149Z,22.70
2022-09-04T16:21:45.051Z,22.70
2022-09-04T16:24:17.521Z,22.70
2022-09-04T16:26:51.397Z,22.70
2022-09-04T16:29:36.562Z,22.70
2022-09-04T16:32:09.679Z,22.70
2022-09-04T16:34:47.264Z,22.70
2022-09-04T16:37:21.224Z,22.70
2022-09-04T16:40:04.247Z,22.70
2022-09-04T16:42:39.943Z,22.70
2022-09-04T16:45:17.465Z,22.70
2022-09-04T16:47:50.651Z,22.70
2022-09-04T16:50:25.342Z,22.70
2022-09-04T16:53:13.084Z,22.70
2022-09-04T16:55:58.002Z,22.70
2022-09-04T16:58:40.123Z,22.70
2022-09-04T17:01:16.147Z,22.70
2022-09-04T17:04:13.512Z,22.70
2022-09-04T17:06:56.360Z,22.70
2022-09-04T17:09:29.402Z,22.70
2022-09-04T17:12:07.275Z,22.70
2022-09-04T17:14:39.701Z,22.70
2022-09-04T17:17:30.247Z,22.70
2022-09-04T17:20:06.403Z,22.70
2022-09-04T17:28:57.471Z,22.70
2022-09-04T17:29:12.645Z,22.70
2022-09-04T17:29:15.038Z,22.70
2022-09-04T17:31:45.892Z,22.70
2022-09-04T17:40:33.803Z,22.60
2022-09-04T17:40:34.729Z,22.70
2022-09-04T17:40:50.298Z,22.70
2022-09-04T17:43:22.750Z,22.60
2022-09-04T17:46:02.249Z,22.60
2022-09-04T17:48:33.446Z,22.60
2022-09-04T17:51:03.946Z,22.60
2022-09-04T17:53:35.419Z,22.60
2022-09-04T17:56:09.234Z,22.60
2022-09-04T17:58:43.659Z,22.60
2022-09-04T18:01:19.621Z,22.60
2022-09-04T18:04:20.877Z,22.60
2022-09-04T18:06:58.071Z,22.60
2022-09-04T18:09:33.030Z,22.60
2022-09-04T18:12:10.203Z,22.60
2022-09-04T18:14:43.412Z,22.60
2022-09-04T18:17:19.930Z,22.60
2022-09-04T18:19:49.755Z,22.60
2022-09-04T18:22:33.699Z,22.50
2022-09-04T18:25:17.331Z,22.50
2022-09-04T18:28:11.501Z,22.50
2022-09-04T18:37:06.870Z,22.50
2022-09-04T18:37:10.821Z,22.50
2022-09-04T18:37:15.975Z,22.50
2022-09-04T18:39:59.538Z,22.50
2022-09-04T18:46:05.169Z,22.50
2022-09-04T18:50:22.960Z,22.40
2022-09-04T18:50:51.557Z,22.40
2022-09-04T18:51:21.320Z,22.40
2022-09-04T18:53:53.951Z,22.40
2022-09-04T18:56:26.427Z,22.30
2022-09-04T18:59:08.041Z,22.30
2022-09-04T19:01:43.749Z,22.30
2022-09-04T19:04:44.476Z,22.20
2022-09-04T19:07:27.529Z,22.20
2022-09-04T19:10:21.835Z,22.20
2022-09-04T19:12:58.574Z,22.10
2022-09-04T19:15:45.036Z,22.10
2022-09-04T19:18:22.235Z,22.10
2022-09-04T19:20:54.363Z,22.10
2022-09-04T19:23:33.028Z,22.10
2022-09-04T19:26:08.019Z,22.10
2022-09-04T19:28:52.354Z,22.10
2022-09-04T19:31:32.027Z,22.00
2022-09-04T19:34:08.735Z,22.00
2022-09-04T19:36:43.743Z,22.10
2022-09-04T19:45:55.852Z,22.00
2022-09-04T19:46:18.489Z,21.90
2022-09-04T19:46:18.773Z,22.00
2022-09-04T19:48:27.294Z,22.00
2022-09-04T19:53:30.149Z,22.00
2022-09-04T19:53:54.963Z,21.90
2022-09-04T19:56:35.309Z,21.90
2022-09-04T19:59:28.197Z,21.90
2022-09-04T20:01:58.137Z,21.90
2022-09-04T20:04:38.570Z,21.90
2022-09-04T20:07:17.427Z,21.90
2022-09-04T20:09:49.089Z,21.90
2022-09-04T20:12:24.529Z,21.90
2022-09-04T20:14:56.963Z,21.90
2022-09-04T20:17:47.562Z,21.80
2022-09-04T20:20:21.254Z,21.80
2022-09-04T20:22:53.897Z,21.70
2022-09-04T20:25:35.699Z,21.70
2022-09-04T20:28:22.959Z,21.70
2022-09-04T20:31:28.435Z,21.70
2022-09-04T20:33:59.113Z,21.70
2022-09-04T20:36:33.618Z,21.80
2022-09-04T20:39:08.316Z,21.80
2022-09-04T20:41:48.195Z,21.80
2022-09-04T20:44:25.217Z,21.70
2022-09-04T20:52:42.060Z,21.70
2022-09-04T20:52:50.302Z,21.70
2022-09-04T20:53:11.094Z,21.70
2022-09-04T20:55:46.254Z,21.70
2022-09-04T21:03:08.847Z,21.60
2022-09-04T21:03:11.658Z,21.70
2022-09-04T21:04:43.231Z,21.70
2022-09-04T21:07:23.623Z,21.70
2022-09-04T21:10:00.599Z,21.70
2022-09-04T21:12:36.337Z,21.60
2022-09-04T21:15:11.481Z,21.60
2022-09-04T21:18:04.409Z,21.60
2022-09-04T21:20:55.086Z,21.50
2022-09-04T21:24:02.754Z,21.60
2022-09-04T21:26:49.429Z,21.60
2022-09-04T21:29:49.746Z,21.60
2022-09-04T21:32:31.342Z,21.50
2022-09-04T21:35:11.280Z,21.50
2022-09-04T21:37:47.640Z,21.50
2022-09-04T21:40:51.091Z,21.50
2022-09-04T21:43:52.915Z,21.50
2022-09-04T21:46:34.119Z,21.40
2022-09-04T21:49:51.697Z,21.40
2022-09-04T21:52:45.932Z,21.30
2022-09-04T21:57:00.068Z,21.20
2022-09-04T22:02:39.897Z,21.30
2022-09-04T22:02:47.266Z,21.30
2022-09-04T22:05:01.089Z,21.20
2022-09-04T22:12:33.085Z,21.20
2022-09-04T22:13:42.851Z,21.20
2022-09-04T22:13:50.296Z,21.10
2022-09-04T22:16:44.935Z,21.10
2022-09-04T22:19:29.963Z,21.10
2022-09-04T22:22:16.356Z,21.10
2022-09-04T22:25:07.292Z,21.20
2022-09-04T22:28:21.618Z,21.20
2022-09-04T22:31:13.724Z,21.10
2022-09-04T22:34:15.518Z,21.20
2022-09-04T22:37:21.505Z,21.20
2022-09-04T22:40:05.550Z,21.20
2022-09-04T22:42:41.450Z,21.20
2022-09-04T22:45:39.164Z,21.20
2022-09-04T22:48:36.842Z,21.20
2022-09-04T22:51:15.835Z,21.20
2022-09-04T22:54:07.336Z,21.20
2022-09-04T22:56:52.973Z,21.20
2022-09-04T22:59:40.619Z,21.20
2022-09-04T23:02:40.703Z,21.20
2022-09-04T23:05:31.038Z,21.20
2022-09-04T23:13:47.607Z,21.10
2022-09-04T23:13:54.153Z,21.10
2022-09-04T23:14:29.363Z,21.00
2022-09-04T23:17:15.564Z,21.00
2022-09-04T23:26:35.390Z,21.00
2022-09-04T23:26:49.802Z,21.10
2022-09-04T23:26:53.814Z,21.10
2022-09-04T23:29:56.292Z,21.10
2022-09-04T23:32:54.963Z,21.00
2022-09-04T23:35:35.531Z,20.90
2022-09-04T23:38:40.922Z,20.80
2022-09-04T23:41:21.718Z,20.80
2022-09-04T23:44:25.492Z,20.80
2022-09-04T23:47:47.986Z,20.80
2022-09-04T23:50:25.906Z,20.70
2022-09-04T23:53:05.919Z,20.80
2022-09-04T23:55:50.457Z,20.90
2022-09-04T23:58:56.308Z,20.90
